createdAt,value
2019-03-06T00:01:45.665Z,5.15
2019-03-06T00:04:19.699Z,5.14
2019-03-06T00:06:55.172Z,5.12
2019-03-06T00:09:30.860Z,5.14
2019-03-06T00:12:06.718Z,5.24
2019-03-06T00:14:43.129Z,5.29
2019-03-06T00:17:17.576Z,5.35
2019-03-06T00:19:53.440Z,5.41
2019-03-06T00:22:28.555Z,5.41
2019-03-06T00:25:03.711Z,5.40
2019-03-06T00:27:39.052Z,5.42
2019-03-06T00:30:15.026Z,5.37
2019-03-06T00:32:49.621Z,5.40
2019-03-06T00:35:26.697Z,5.38
2019-03-06T00:38:01.925Z,5.30
2019-03-06T00:40:42.155Z,5.30
2019-03-06T00:43:16.761Z,5.31
2019-03-06T00:45:51.508Z,5.28
2019-03-06T00:48:26.083Z,5.28
2019-03-06T00:51:02.802Z,5.24
2019-03-06T00:53:37.540Z,5.20
2019-03-06T00:56:13.998Z,5.21
2019-03-06T00:58:47.546Z,5.22
2019-03-06T01:01:22.049Z,5.19
2019-03-06T01:03:56.697Z,5.16
2019-03-06T01:06:31.315Z,5.16
2019-03-06T01:09:07.366Z,5.14
2019-03-06T01:11:41.203Z,5.05
2019-03-06T01:14:16.360Z,4.96
2019-03-06T01:16:51.213Z,4.87
2019-03-06T01:19:25.720Z,4.89
2019-03-06T01:22:00.734Z,4.91
2019-03-06T01:24:35.273Z,4.89
2019-03-06T01:27:10.010Z,4.88
2019-03-06T01:29:44.222Z,4.85
2019-03-06T01:32:19.440Z,4.88
2019-03-06T01:35:14.550Z,4.88
2019-03-06T01:38:04.965Z,4.84
2019-03-06T01:40:52.146Z,4.84
2019-03-06T01:43:36.607Z,4.81
2019-03-06T01:46:12.365Z,4.76
2019-03-06T01:48:50.481Z,4.65
2019-03-06T01:51:25.069Z,4.59
2019-03-06T01:54:00.361Z,4.55
2019-03-06T01:56:35.467Z,4.45
2019-03-06T01:59:10.705Z,4.40
2019-03-06T02:01:46.045Z,4.30
2019-03-06T02:04:21.633Z,4.28
2019-03-06T02:06:56.279Z,4.20
2019-03-06T02:09:32.646Z,4.17
2019-03-06T02:12:09.154Z,4.16
2019-03-06T02:14:43.424Z,4.14
2019-03-06T02:17:17.911Z,4.14
2019-03-06T02:19:52.913Z,4.12
2019-03-06T02:22:27.746Z,4.13
2019-03-06T02:25:02.897Z,4.06
2019-03-06T02:27:38.499Z,4.05
2019-03-06T02:30:18.192Z,4.01
2019-03-06T02:32:53.930Z,3.98
2019-03-06T02:35:29.498Z,3.96
2019-03-06T02:38:15.816Z,3.93
2019-03-06T02:40:49.899Z,3.93
2019-03-06T02:43:26.143Z,3.91
2019-03-06T02:46:01.743Z,3.89
2019-03-06T02:48:37.795Z,3.91
2019-03-06T02:51:14.248Z,3.85
2019-03-06T02:53:48.341Z,3.84
2019-03-06T02:56:22.939Z,3.86
2019-03-06T02:59:04.597Z,3.87
2019-03-06T03:01:57.119Z,3.85
2019-03-06T03:04:52.425Z,3.84
2019-03-06T03:07:28.844Z,3.79
2019-03-06T03:10:03.829Z,3.78
2019-03-06T03:12:38.488Z,3.73
2019-03-06T03:15:17.684Z,3.70
2019-03-06T03:17:53.168Z,3.69
2019-03-06T03:20:27.946Z,3.68
2019-03-06T03:23:04.728Z,3.64
2019-03-06T03:25:41.339Z,3.57
2019-03-06T03:28:15.699Z,3.53
2019-03-06T03:30:52.255Z,3.54
2019-03-06T03:33:30.468Z,3.49
2019-03-06T03:36:06.329Z,3.45
2019-03-06T03:38:41.168Z,3.42
2019-03-06T03:41:16.690Z,3.40
2019-03-06T03:43:52.870Z,3.36
2019-03-06T03:46:28.223Z,3.30
2019-03-06T03:49:03.630Z,3.31
2019-03-06T03:51:38.221Z,3.32
2019-03-06T03:54:14.784Z,3.29
2019-03-06T03:56:49.011Z,3.26
2019-03-06T03:59:27.788Z,3.25
2019-03-06T04:02:03.752Z,3.28
2019-03-06T04:04:39.172Z,3.27
2019-03-06T04:07:15.019Z,3.27
2019-03-06T04:09:52.840Z,3.24
2019-03-06T04:12:25.804Z,3.25
2019-03-06T04:15:02.045Z,3.26
2019-03-06T04:17:38.289Z,3.29
2019-03-06T04:20:15.876Z,3.32
2019-03-06T04:22:50.980Z,3.34
2019-03-06T04:25:25.524Z,3.36
2019-03-06T04:28:01.321Z,3.39
2019-03-06T04:30:38.025Z,3.42
2019-03-06T04:33:12.895Z,3.42
2019-03-06T04:35:49.135Z,3.43
2019-03-06T04:38:24.743Z,3.43
2019-03-06T04:41:03.173Z,3.41
2019-03-06T04:43:38.992Z,3.37
2019-03-06T04:46:13.147Z,3.35
2019-03-06T04:48:48.815Z,3.29
2019-03-06T04:51:25.004Z,3.22
2019-03-06T04:54:00.721Z,3.13
2019-03-06T04:56:35.546Z,3.09
2019-03-06T04:59:12.047Z,3.07
2019-03-06T05:01:47.375Z,3.05
2019-03-06T05:04:21.270Z,3.00
2019-03-06T05:06:57.655Z,2.96
2019-03-06T05:09:33.566Z,2.91
2019-03-06T05:12:09.721Z,2.92
2019-03-06T05:14:45.244Z,2.92
2019-03-06T05:17:45.850Z,2.92
2019-03-06T05:20:21.367Z,2.91
2019-03-06T05:22:56.301Z,2.89
2019-03-06T05:25:31.736Z,2.89
2019-03-06T05:28:06.625Z,2.91
2019-03-06T05:30:41.267Z,2.95
2019-03-06T05:33:15.691Z,3.00
2019-03-06T05:37:08.853Z,3.03
2019-03-06T05:39:43.501Z,3.04
2019-03-06T05:42:18.514Z,3.08
2019-03-06T05:44:52.921Z,3.10
2019-03-06T05:47:28.837Z,3.12
2019-03-06T05:50:02.068Z,3.13
2019-03-06T05:52:40.666Z,3.11
2019-03-06T05:55:15.930Z,3.08
2019-03-06T05:57:59.056Z,3.09
2019-03-06T06:00:35.820Z,3.04
2019-03-06T06:03:11.214Z,3.03
2019-03-06T06:05:46.429Z,3.07
2019-03-06T06:08:22.831Z,3.11
2019-03-06T06:10:58.883Z,3.16
2019-03-06T06:13:35.043Z,3.20
2019-03-06T06:16:13.402Z,3.25
2019-03-06T06:18:47.927Z,3.28
2019-03-06T06:21:42.226Z,3.28
2019-03-06T06:24:22.273Z,3.29
2019-03-06T06:26:56.784Z,3.31
2019-03-06T06:29:30.260Z,3.30
2019-03-06T06:32:05.332Z,3.33
2019-03-06T06:34:39.569Z,3.33
2019-03-06T06:37:13.921Z,3.37
2019-03-06T06:39:48.908Z,3.37
2019-03-06T06:42:24.791Z,3.38
2019-03-06T06:45:00.313Z,3.45
2019-03-06T06:47:35.472Z,3.49
2019-03-06T06:50:11.300Z,3.55
2019-03-06T06:53:53.129Z,3.60
2019-03-06T06:57:42.050Z,3.65
2019-03-06T07:01:11.573Z,3.73
2019-03-06T07:05:00.620Z,3.82
2019-03-06T07:07:59.499Z,3.91
2019-03-06T07:10:55.418Z,3.99
2019-03-06T07:13:46.143Z,4.06
2019-03-06T07:16:49.180Z,4.14
2019-03-06T07:19:53.363Z,4.25
2019-03-06T07:22:52.381Z,4.34
2019-03-06T07:25:46.361Z,4.42
2019-03-06T07:28:50.784Z,4.52
2019-03-06T07:31:47.450Z,4.61
2019-03-06T07:34:33.027Z,4.67
2019-03-06T07:37:13.589Z,4.77
2019-03-06T07:39:56.854Z,4.86
2019-03-06T07:42:45.366Z,4.92
2019-03-06T07:46:00.057Z,5.03
2019-03-06T07:49:05.238Z,5.11
2019-03-06T07:51:57.087Z,5.17
2019-03-06T07:54:51.687Z,5.20
2019-03-06T07:57:27.135Z,5.26
2019-03-06T08:00:00.312Z,5.34
2019-03-06T08:03:12.885Z,5.42
2019-03-06T08:05:56.553Z,5.49
2019-03-06T08:08:30.680Z,5.58
2019-03-06T08:11:06.239Z,5.66
2019-03-06T08:13:55.280Z,5.76
2019-03-06T08:16:39.349Z,5.86
2019-03-06T08:19:35.666Z,5.95
2019-03-06T08:22:17.093Z,6.05
2019-03-06T08:25:03.152Z,6.11
2019-03-06T08:27:38.263Z,6.20
2019-03-06T08:30:12.960Z,6.28
2019-03-06T08:32:49.120Z,6.37
2019-03-06T08:35:22.364Z,6.45
2019-03-06T08:37:55.925Z,6.52
2019-03-06T08:40:31.547Z,6.59
2019-03-06T08:43:05.598Z,6.64
2019-03-06T08:46:00.072Z,6.69
2019-03-06T08:48:42.789Z,6.75
2019-03-06T08:51:40.499Z,6.84
2019-03-06T08:54:35.749Z,6.90
2019-03-06T08:57:33.148Z,6.99
2019-03-06T09:00:37.234Z,7.06
2019-03-06T09:03:35.329Z,7.12
2019-03-06T09:06:37.919Z,7.21
2019-03-06T09:09:43.099Z,7.29
2019-03-06T09:12:24.159Z,7.34
2019-03-06T09:15:26.678Z,7.42
2019-03-06T09:18:14.380Z,7.49
2019-03-06T09:21:08.889Z,7.56
2019-03-06T09:24:05.626Z,7.60
2019-03-06T09:26:59.638Z,7.68
2019-03-06T09:29:44.679Z,7.77
2019-03-06T09:32:34.726Z,7.82
2019-03-06T09:35:24.778Z,7.88
2019-03-06T09:38:14.543Z,7.94
2019-03-06T09:41:11.108Z,7.98
2019-03-06T09:43:54.784Z,8.08
2019-03-06T09:46:53.567Z,8.17
2019-03-06T09:49:53.543Z,8.28
2019-03-06T09:52:44.188Z,8.38
2019-03-06T09:55:35.982Z,8.49
2019-03-06T09:58:25.990Z,8.60
2019-03-06T10:01:24.454Z,8.67
2019-03-06T10:04:29.490Z,8.75
2019-03-06T10:07:40.150Z,8.87
2019-03-06T10:10:46.379Z,8.96
2019-03-06T10:13:24.300Z,9.10
2019-03-06T10:16:14.504Z,9.22
2019-03-06T10:18:57.443Z,9.32
2019-03-06T10:21:31.858Z,9.29
2019-03-06T10:24:06.774Z,9.32
2019-03-06T10:26:41.625Z,9.30
2019-03-06T10:29:14.603Z,9.35
2019-03-06T10:31:48.081Z,9.40
2019-03-06T10:34:21.720Z,9.49
2019-03-06T10:36:56.341Z,9.56
2019-03-06T10:39:28.718Z,9.64
2019-03-06T10:42:01.780Z,9.70
2019-03-06T10:44:35.305Z,9.74
2019-03-06T10:47:10.376Z,9.76
2019-03-06T10:49:44.645Z,9.80
2019-03-06T10:52:17.621Z,9.87
2019-03-06T10:54:51.440Z,9.93
2019-03-06T10:57:26.059Z,9.97
2019-03-06T11:00:00.183Z,10.04
2019-03-06T11:02:34.906Z,10.10
2019-03-06T11:05:32.495Z,10.15
2019-03-06T11:08:07.519Z,10.20
2019-03-06T11:10:41.392Z,10.27
2019-03-06T11:13:15.645Z,10.30
2019-03-06T11:15:55.695Z,10.35
2019-03-06T11:18:25.074Z,10.43
2019-03-06T11:20:59.910Z,10.50
2019-03-06T11:23:34.366Z,10.58
2019-03-06T11:26:10.044Z,10.66
2019-03-06T11:28:45.909Z,10.70
2019-03-06T11:31:19.275Z,10.76
2019-03-06T11:33:51.983Z,10.82
2019-03-06T11:36:26.558Z,10.86
2019-03-06T11:38:59.894Z,10.93
2019-03-06T11:41:34.190Z,11.00
2019-03-06T11:44:08.603Z,11.18
2019-03-06T11:46:42.828Z,11.68
2019-03-06T11:49:16.658Z,12.37
2019-03-06T11:51:50.557Z,13.06
2019-03-06T11:54:24.960Z,13.65
2019-03-06T11:56:59.111Z,14.21
2019-03-06T11:59:33.042Z,14.82
2019-03-06T12:02:07.332Z,15.44
2019-03-06T12:04:41.911Z,15.99
2019-03-06T12:07:16.225Z,16.56
2019-03-06T12:09:50.578Z,16.92
2019-03-06T12:12:25.190Z,17.17
2019-03-06T12:14:59.775Z,17.46
2019-03-06T12:17:33.817Z,17.79
2019-03-06T12:20:08.566Z,18.12
2019-03-06T12:22:42.957Z,18.41
2019-03-06T12:25:18.326Z,18.78
2019-03-06T12:27:51.754Z,19.08
2019-03-06T12:30:26.893Z,19.42
2019-03-06T12:33:01.531Z,19.65
2019-03-06T12:35:38.641Z,19.82
2019-03-06T12:38:12.023Z,20.08
2019-03-06T12:40:46.229Z,20.42
2019-03-06T12:43:20.096Z,20.74
2019-03-06T12:46:28.315Z,20.94
2019-03-06T12:49:06.318Z,21.02
2019-03-06T12:51:41.341Z,21.22
2019-03-06T12:54:16.748Z,21.35
2019-03-06T12:56:52.208Z,21.64
2019-03-06T12:59:25.155Z,21.87
2019-03-06T13:01:58.371Z,21.91
2019-03-06T13:04:31.247Z,21.93
2019-03-06T13:07:04.840Z,21.94
2019-03-06T13:09:39.807Z,22.13
2019-03-06T13:12:13.941Z,22.35
2019-03-06T13:14:47.545Z,22.67
2019-03-06T13:17:21.065Z,22.92
2019-03-06T13:19:59.613Z,23.11
2019-03-06T13:22:33.157Z,23.15
2019-03-06T13:25:08.204Z,23.05
2019-03-06T13:27:42.235Z,23.17
2019-03-06T13:30:16.790Z,22.99
2019-03-06T13:33:14.250Z,23.03
2019-03-06T13:35:46.855Z,23.06
2019-03-06T13:38:21.553Z,23.30
2019-03-06T13:40:55.256Z,23.47
2019-03-06T13:43:46.471Z,23.30
2019-03-06T13:46:20.481Z,23.41
2019-03-06T13:48:53.848Z,23.56
2019-03-06T13:51:27.118Z,23.43
2019-03-06T13:54:00.097Z,23.59
2019-03-06T13:56:34.330Z,23.69
2019-03-06T13:59:27.077Z,23.90
2019-03-06T14:09:39.021Z,23.98
2019-03-06T14:12:15.366Z,24.04
2019-03-06T14:14:50.483Z,23.92
2019-03-06T14:17:26.762Z,23.93
2019-03-06T14:20:01.788Z,23.73
2019-03-06T14:22:37.420Z,23.73
2019-03-06T14:25:13.119Z,23.73
2019-03-06T14:27:48.746Z,23.85
2019-03-06T14:30:23.559Z,24.05
2019-03-06T14:32:57.741Z,24.01
2019-03-06T14:35:33.827Z,24.01
2019-03-06T14:38:10.652Z,24.01
2019-03-06T14:40:48.320Z,23.91
2019-03-06T14:43:22.707Z,23.83
2019-03-06T14:46:03.591Z,23.70
2019-03-06T14:48:38.462Z,23.63
2019-03-06T14:51:49.834Z,23.44
2019-03-06T14:54:04.030Z,23.32
2019-03-06T14:56:39.417Z,23.07
2019-03-06T14:59:16.530Z,22.82
2019-03-06T15:01:51.191Z,22.90
2019-03-06T15:04:24.668Z,22.92
2019-03-06T15:06:58.012Z,22.89
2019-03-06T15:09:31.788Z,22.81
2019-03-06T15:12:05.537Z,22.46
2019-03-06T15:14:40.864Z,22.29
2019-03-06T15:17:14.813Z,22.05
2019-03-06T15:19:49.774Z,21.73
2019-03-06T15:22:24.740Z,21.49
2019-03-06T15:24:59.271Z,21.23
2019-03-06T15:27:33.774Z,21.09
2019-03-06T15:30:09.279Z,20.85
2019-03-06T15:32:43.959Z,20.68
2019-03-06T15:35:20.323Z,20.61
2019-03-06T15:37:55.477Z,20.51
2019-03-06T15:40:32.211Z,20.41
2019-03-06T15:43:08.222Z,19.97
2019-03-06T15:45:44.365Z,19.83
2019-03-06T15:48:17.915Z,19.70
2019-03-06T15:50:51.696Z,19.44
2019-03-06T15:53:26.232Z,19.20
2019-03-06T15:56:03.647Z,18.61
2019-03-06T15:58:38.395Z,18.13
2019-03-06T16:01:13.145Z,17.73
2019-03-06T16:03:47.791Z,17.36
2019-03-06T16:06:22.140Z,16.96
2019-03-06T16:08:56.845Z,16.59
2019-03-06T16:11:32.595Z,16.13
2019-03-06T16:14:09.063Z,15.78
2019-03-06T16:16:46.127Z,15.51
2019-03-06T16:19:20.667Z,15.17
2019-03-06T16:21:57.663Z,14.92
2019-03-06T16:24:33.206Z,14.57
2019-03-06T16:27:09.313Z,14.37
2019-03-06T16:29:48.507Z,14.18
2019-03-06T16:32:24.910Z,13.92
2019-03-06T16:35:00.595Z,13.67
2019-03-06T16:37:35.823Z,13.47
2019-03-06T16:40:15.974Z,13.34
2019-03-06T16:42:52.436Z,13.15
2019-03-06T16:45:30.256Z,13.00
2019-03-06T16:48:06.623Z,12.85
2019-03-06T16:50:41.403Z,12.71
2019-03-06T16:53:17.696Z,12.58
2019-03-06T16:55:53.163Z,12.45
2019-03-06T16:58:27.588Z,12.35
2019-03-06T17:01:07.106Z,12.23
2019-03-06T17:03:41.700Z,12.10
2019-03-06T17:06:17.354Z,11.95
2019-03-06T17:08:52.547Z,11.86
2019-03-06T17:11:29.876Z,11.77
2019-03-06T17:14:05.287Z,11.69
2019-03-06T17:16:39.623Z,11.59
2019-03-06T17:19:15.655Z,11.53
2019-03-06T17:21:52.032Z,11.44
2019-03-06T17:24:28.281Z,11.38
2019-03-06T17:27:03.205Z,11.32
2019-03-06T17:29:38.261Z,11.28
2019-03-06T17:32:13.784Z,11.22
2019-03-06T17:34:49.336Z,11.18
2019-03-06T17:37:23.573Z,11.15
2019-03-06T17:39:58.068Z,11.10
2019-03-06T17:42:33.313Z,11.06
2019-03-06T17:45:09.156Z,11.01
2019-03-06T17:47:44.733Z,10.95
2019-03-06T17:50:20.568Z,10.92
2019-03-06T17:52:55.719Z,10.88
2019-03-06T17:55:30.946Z,10.82
2019-03-06T17:58:06.062Z,10.74
2019-03-06T18:00:56.004Z,10.67
2019-03-06T18:03:45.557Z,10.60
2019-03-06T18:06:21.834Z,10.52
2019-03-06T18:08:56.145Z,10.45
2019-03-06T18:11:33.030Z,10.40
2019-03-06T18:14:08.764Z,10.31
2019-03-06T18:16:44.212Z,10.28
2019-03-06T18:19:18.599Z,10.21
2019-03-06T18:21:52.606Z,10.16
2019-03-06T18:24:26.709Z,10.06
2019-03-06T18:27:01.895Z,10.02
2019-03-06T18:29:36.486Z,9.96
2019-03-06T18:32:11.780Z,9.92
2019-03-06T18:34:46.367Z,9.88
2019-03-06T18:37:21.248Z,9.86
2019-03-06T18:39:56.748Z,9.82
2019-03-06T18:42:32.533Z,9.80
2019-03-06T18:45:08.928Z,9.80
2019-03-06T18:47:43.726Z,9.78
2019-03-06T18:50:20.032Z,9.74
2019-03-06T18:52:55.859Z,9.69
2019-03-06T18:55:29.873Z,9.66
2019-03-06T18:58:04.877Z,9.62
2019-03-06T19:00:39.142Z,9.61
2019-03-06T19:03:16.418Z,9.56
2019-03-06T19:05:51.673Z,9.55
2019-03-06T19:08:31.207Z,9.52
2019-03-06T19:11:03.947Z,9.47
2019-03-06T19:13:38.110Z,9.42
2019-03-06T19:16:13.107Z,9.38
2019-03-06T19:18:49.133Z,9.35
2019-03-06T19:21:23.022Z,9.34
2019-03-06T19:23:56.754Z,9.36
2019-03-06T19:26:30.850Z,9.36
2019-03-06T19:29:06.019Z,9.36
2019-03-06T19:31:40.899Z,9.33
2019-03-06T19:34:15.421Z,9.32
2019-03-06T19:36:50.910Z,9.30
2019-03-06T19:39:25.672Z,9.27
2019-03-06T19:42:00.013Z,9.26
2019-03-06T19:44:35.462Z,9.25
2019-03-06T19:47:10.451Z,9.24
2019-03-06T19:49:45.839Z,9.25
2019-03-06T19:52:20.437Z,9.25
2019-03-06T19:54:55.372Z,9.26
2019-03-06T19:57:32.438Z,9.27
2019-03-06T20:00:10.165Z,9.24
2019-03-06T20:02:44.565Z,9.22
2019-03-06T20:05:18.635Z,9.25
2019-03-06T20:07:54.478Z,9.26
2019-03-06T20:10:29.918Z,9.24
2019-03-06T20:13:08.572Z,9.24
2019-03-06T20:15:43.058Z,9.24
2019-03-06T20:18:21.994Z,9.24
2019-03-06T20:20:58.377Z,9.22
2019-03-06T20:23:36.966Z,9.22
2019-03-06T20:26:14.690Z,9.21
2019-03-06T20:28:48.542Z,9.20
2019-03-06T20:31:24.197Z,9.21
2019-03-06T20:33:59.748Z,9.19
2019-03-06T20:36:33.194Z,9.19
2019-03-06T20:39:09.847Z,9.19
2019-03-06T20:41:45.370Z,9.18
2019-03-06T20:44:21.056Z,9.20
2019-03-06T20:46:57.980Z,9.17
2019-03-06T20:49:33.559Z,9.16
2019-03-06T20:52:08.837Z,9.17
2019-03-06T20:54:43.987Z,9.16
2019-03-06T20:57:18.488Z,9.12
2019-03-06T20:59:53.045Z,9.12
2019-03-06T21:02:28.089Z,9.10
2019-03-06T21:05:02.830Z,9.09
2019-03-06T21:07:44.850Z,9.09
2019-03-06T21:10:16.792Z,9.05
2019-03-06T21:12:52.407Z,9.05
2019-03-06T21:15:27.543Z,9.06
2019-03-06T21:18:02.515Z,9.06
2019-03-06T21:20:37.828Z,9.03
2019-03-06T21:23:11.166Z,9.00
2019-03-06T21:25:45.575Z,8.99
2019-03-06T21:28:20.007Z,8.98
2019-03-06T21:30:55.074Z,8.96
2019-03-06T21:33:28.553Z,8.95
2019-03-06T21:36:03.640Z,8.89
2019-03-06T21:38:38.708Z,8.87
2019-03-06T21:41:15.249Z,8.86
2019-03-06T21:43:50.614Z,8.84
2019-03-06T21:46:24.936Z,8.81
2019-03-06T21:48:59.476Z,8.79
2019-03-06T21:51:32.518Z,8.75
2019-03-06T21:54:07.025Z,8.72
2019-03-06T21:56:41.050Z,8.69
2019-03-06T21:59:14.005Z,8.63
2019-03-06T22:01:48.015Z,8.61
2019-03-06T22:04:21.417Z,8.56
2019-03-06T22:06:55.885Z,8.54
2019-03-06T22:09:30.598Z,8.47
2019-03-06T22:12:05.902Z,8.44
2019-03-06T22:14:40.970Z,8.41
2019-03-06T22:17:15.046Z,8.41
2019-03-06T22:19:50.332Z,8.37
2019-03-06T22:22:24.515Z,8.37
2019-03-06T22:24:59.570Z,8.35
2019-03-06T22:27:34.898Z,8.34
2019-03-06T22:30:12.140Z,8.28
2019-03-06T22:32:47.162Z,8.27
2019-03-06T22:35:22.373Z,8.24
2019-03-06T22:37:57.438Z,8.19
2019-03-06T22:40:32.633Z,8.16
2019-03-06T22:43:07.085Z,8.13
2019-03-06T22:45:41.427Z,8.13
2019-03-06T22:48:16.918Z,8.09
2019-03-06T22:50:51.571Z,8.10
2019-03-06T22:53:25.924Z,8.06
2019-03-06T22:56:01.019Z,8.06
2019-03-06T22:58:35.548Z,8.05
2019-03-06T23:01:33.459Z,8.04
2019-03-06T23:04:08.633Z,8.05
2019-03-06T23:06:43.433Z,8.04
2019-03-06T23:09:17.447Z,8.02
2019-03-06T23:11:51.571Z,8.03
2019-03-06T23:14:25.680Z,8.03
2019-03-06T23:17:01.261Z,8.02
2019-03-06T23:19:36.845Z,8.02
2019-03-06T23:22:10.894Z,8.03
2019-03-06T23:24:46.336Z,8.03
2019-03-06T23:27:21.514Z,8.03
2019-03-06T23:29:57.116Z,8.01
2019-03-06T23:32:32.043Z,8.04
2019-03-06T23:35:06.942Z,8.03
2019-03-06T23:37:41.191Z,8.03
2019-03-06T23:40:15.749Z,8.04
2019-03-06T23:42:50.292Z,8.06
2019-03-06T23:45:24.397Z,8.07
2019-03-06T23:47:59.283Z,8.08
2019-03-06T23:50:33.414Z,8.09
2019-03-06T23:53:09.988Z,8.10
2019-03-06T23:55:44.856Z,8.08
2019-03-06T23:58:19.721Z,8.12
